createdAt,value
2023-02-22T00:01:33.347Z,27.20
2023-02-22T00:03:59.814Z,19.03
2023-02-22T00:06:27.265Z,31.03
2023-02-22T00:08:54.055Z,21.97
2023-02-22T00:11:20.580Z,26.10
2023-02-22T00:13:47.599Z,24.23
2023-02-22T00:16:20.344Z,23.83
2023-02-22T00:18:47.708Z,20.60
2023-02-22T00:21:16.584Z,23.83
2023-02-22T00:23:46.617Z,27.87
2023-02-22T00:26:18.162Z,16.97
2023-02-22T00:28:47.997Z,19.40
2023-02-22T00:31:15.052Z,19.53
2023-02-22T00:33:42.924Z,17.60
2023-02-22T00:36:11.300Z,16.93
2023-02-22T00:38:38.276Z,18.83
2023-02-22T00:41:05.375Z,13.60
2023-02-22T00:43:31.828Z,20.37
2023-02-22T00:45:58.472Z,19.07
2023-02-22T00:48:25.178Z,21.30
2023-02-22T00:50:55.096Z,25.00
2023-02-22T00:53:23.822Z,11.53
2023-02-22T00:55:50.614Z,10.23
2023-02-22T00:58:17.107Z,15.37
2023-02-22T01:00:43.668Z,17.90
2023-02-22T01:03:13.006Z,13.50
2023-02-22T01:05:39.484Z,17.37
2023-02-22T01:08:07.925Z,17.80
2023-02-22T01:10:35.073Z,20.97
2023-02-22T01:13:04.870Z,19.63
2023-02-22T01:15:31.339Z,13.93
2023-02-22T01:17:59.658Z,22.17
2023-02-22T01:20:27.666Z,19.30
2023-02-22T01:22:56.945Z,19.80
2023-02-22T01:25:26.302Z,19.87
2023-02-22T01:27:54.723Z,24.07
2023-02-22T01:30:24.427Z,17.70
2023-02-22T01:32:51.436Z,18.30
2023-02-22T01:35:21.064Z,19.80
2023-02-22T01:37:47.533Z,16.63
2023-02-22T01:40:24.460Z,17.80
2023-02-22T01:42:57.728Z,20.70
2023-02-22T01:45:30.431Z,18.17
2023-02-22T01:48:01.958Z,18.77
2023-02-22T01:50:29.315Z,19.70
2023-02-22T01:52:55.904Z,19.50
2023-02-22T01:55:22.929Z,17.70
2023-02-22T01:57:49.614Z,22.00
2023-02-22T02:00:21.213Z,19.43
2023-02-22T02:03:06.384Z,16.20
2023-02-22T02:05:34.588Z,21.00
2023-02-22T02:08:13.264Z,21.77
2023-02-22T02:10:42.893Z,16.80
2023-02-22T02:13:10.134Z,16.80
2023-02-22T02:15:36.975Z,15.57
2023-02-22T02:18:09.252Z,15.97
2023-02-22T02:20:46.353Z,15.00
2023-02-22T02:23:18.900Z,15.50
2023-02-22T02:26:04.258Z,16.53
2023-02-22T02:29:02.217Z,19.03
2023-02-22T02:31:36.953Z,16.87
2023-02-22T02:34:32.438Z,16.23
2023-02-22T02:37:17.365Z,14.83
2023-02-22T02:40:11.336Z,11.50
2023-02-22T02:42:55.509Z,11.80
2023-02-22T02:45:29.307Z,15.03
2023-02-22T02:47:58.783Z,13.47
2023-02-22T02:50:31.592Z,9.63
2023-02-22T02:53:02.922Z,15.23
2023-02-22T02:55:31.673Z,15.83
2023-02-22T02:57:59.351Z,14.03
2023-02-22T03:00:32.515Z,14.83
2023-02-22T03:03:26.275Z,12.10
2023-02-22T03:06:10.415Z,11.83
2023-02-22T03:08:55.315Z,11.13
2023-02-22T03:11:28.576Z,13.90
2023-02-22T03:14:14.408Z,11.87
2023-02-22T03:16:46.097Z,12.70
2023-02-22T03:19:31.319Z,10.23
2023-02-22T03:22:08.931Z,12.50
2023-02-22T03:24:42.404Z,12.77
2023-02-22T03:27:14.567Z,12.10
2023-02-22T03:29:48.228Z,10.20
2023-02-22T03:32:20.584Z,17.13
2023-02-22T03:34:53.759Z,14.20
2023-02-22T03:37:25.618Z,10.40
2023-02-22T03:39:54.917Z,12.27
2023-02-22T03:42:26.620Z,11.77
2023-02-22T03:44:57.915Z,14.90
2023-02-22T03:47:42.055Z,14.17
2023-02-22T03:50:15.269Z,14.00
2023-02-22T03:52:44.632Z,14.23
2023-02-22T03:55:17.692Z,13.97
2023-02-22T03:57:51.742Z,9.53
2023-02-22T04:00:22.936Z,10.00
2023-02-22T04:02:50.540Z,9.93
2023-02-22T04:05:20.324Z,9.53
2023-02-22T04:07:48.011Z,13.13
2023-02-22T04:10:16.349Z,9.77
2023-02-22T04:12:43.589Z,10.50
2023-02-22T04:15:13.851Z,11.27
2023-02-22T04:17:40.344Z,19.93
2023-02-22T04:20:09.406Z,8.87
2023-02-22T04:22:44.016Z,9.97
2023-02-22T04:25:10.905Z,11.00
2023-02-22T04:27:37.797Z,20.17
2023-02-22T04:30:05.373Z,10.70
2023-02-22T04:32:34.682Z,10.83
2023-02-22T04:35:01.937Z,19.33
2023-02-22T04:37:29.948Z,17.50
2023-02-22T04:39:56.865Z,10.47
2023-02-22T04:42:23.395Z,16.40
2023-02-22T04:44:49.903Z,13.53
2023-02-22T04:47:16.469Z,11.47
2023-02-22T04:49:43.892Z,11.23
2023-02-22T04:52:10.330Z,16.03
2023-02-22T04:54:38.526Z,14.00
2023-02-22T04:57:04.992Z,14.10
2023-02-22T04:59:33.499Z,17.27
2023-02-22T05:02:01.215Z,11.03
2023-02-22T05:04:27.739Z,14.00
2023-02-22T05:06:55.147Z,11.20
2023-02-22T05:09:21.801Z,11.53
2023-02-22T05:11:48.227Z,11.53
2023-02-22T05:14:14.823Z,15.13
2023-02-22T05:16:41.376Z,11.20
2023-02-22T05:19:08.530Z,14.30
2023-02-22T05:21:34.973Z,12.73
2023-02-22T05:24:04.888Z,13.90
2023-02-22T05:26:31.359Z,14.27
2023-02-22T05:28:57.822Z,13.90
2023-02-22T05:31:24.405Z,10.87
2023-02-22T05:33:50.908Z,15.43
2023-02-22T05:36:17.441Z,13.67
2023-02-22T05:38:44.740Z,11.87
2023-02-22T05:41:12.946Z,14.50
2023-02-22T05:43:40.509Z,11.83
2023-02-22T05:46:07.532Z,11.33
2023-02-22T05:48:34.374Z,10.07
2023-02-22T05:51:00.924Z,12.83
2023-02-22T05:53:27.712Z,16.40
2023-02-22T05:55:54.150Z,14.00
2023-02-22T05:58:20.938Z,12.23
2023-02-22T06:00:47.576Z,13.20
2023-02-22T06:03:14.016Z,9.90
2023-02-22T06:05:41.674Z,14.67
2023-02-22T06:08:08.998Z,10.93
2023-02-22T06:10:35.433Z,12.07
2023-02-22T06:13:03.146Z,13.87
2023-02-22T06:15:29.709Z,10.67
2023-02-22T06:17:58.636Z,12.43
2023-02-22T06:20:26.880Z,18.10
2023-02-22T06:22:55.109Z,17.40
2023-02-22T06:25:24.321Z,20.00
2023-02-22T06:27:51.182Z,12.93
2023-02-22T06:30:20.626Z,13.80
2023-02-22T06:32:47.181Z,9.93
2023-02-22T06:35:15.091Z,11.73
2023-02-22T06:37:41.546Z,14.77
2023-02-22T06:40:08.942Z,18.93
2023-02-22T06:42:35.385Z,11.67
2023-02-22T06:45:01.856Z,12.10
2023-02-22T06:47:28.563Z,11.40
2023-02-22T06:49:56.422Z,11.63
2023-02-22T06:52:23.547Z,19.33
2023-02-22T06:54:50.388Z,18.27
2023-02-22T06:57:17.426Z,17.90
2023-02-22T06:59:44.128Z,21.50
2023-02-22T07:02:12.328Z,16.30
2023-02-22T07:04:41.709Z,19.10
2023-02-22T07:07:09.736Z,16.37
2023-02-22T07:09:36.230Z,15.30
2023-02-22T07:12:02.744Z,16.03
2023-02-22T07:14:29.203Z,19.13
2023-02-22T07:16:55.641Z,15.10
2023-02-22T07:19:22.091Z,17.70
2023-02-22T07:21:48.520Z,22.87
2023-02-22T07:24:14.968Z,23.33
2023-02-22T07:26:42.846Z,16.60
2023-02-22T07:29:11.295Z,21.80
2023-02-22T07:31:38.817Z,18.03
2023-02-22T07:34:05.341Z,17.07
2023-02-22T07:36:31.891Z,20.07
2023-02-22T07:38:58.360Z,16.67
2023-02-22T07:41:25.722Z,14.83
2023-02-22T07:43:52.172Z,17.20
2023-02-22T07:46:18.693Z,11.57
2023-02-22T07:48:45.132Z,17.43
2023-02-22T07:51:15.732Z,11.47
2023-02-22T07:53:42.388Z,16.10
2023-02-22T07:56:08.896Z,14.50
2023-02-22T07:58:35.419Z,13.27
2023-02-22T08:01:04.934Z,15.20
2023-02-22T08:03:36.522Z,12.60
2023-02-22T08:06:05.622Z,12.33
2023-02-22T08:08:32.140Z,12.53
2023-02-22T08:10:58.626Z,10.17
2023-02-22T08:13:25.270Z,14.67
2023-02-22T08:15:53.838Z,11.70
2023-02-22T08:18:22.219Z,11.93
2023-02-22T08:20:50.335Z,7.40
2023-02-22T08:23:18.526Z,7.60
2023-02-22T08:25:45.622Z,7.40
2023-02-22T08:28:15.157Z,8.23
2023-02-22T08:30:43.658Z,6.03
2023-02-22T08:33:14.495Z,7.50
2023-02-22T08:35:41.905Z,6.30
2023-02-22T08:38:15.185Z,7.50
2023-02-22T08:40:41.649Z,12.53
2023-02-22T08:43:08.097Z,7.60
2023-02-22T08:45:34.760Z,7.83
2023-02-22T08:48:01.181Z,6.47
2023-02-22T08:50:36.106Z,6.67
2023-02-22T08:53:04.806Z,13.93
2023-02-22T08:55:34.340Z,4.87
2023-02-22T08:58:03.021Z,7.80
2023-02-22T09:00:33.079Z,4.50
2023-02-22T09:03:00.726Z,6.23
2023-02-22T09:05:27.265Z,7.27
2023-02-22T09:07:53.950Z,11.37
2023-02-22T09:10:25.659Z,6.13
2023-02-22T09:12:55.369Z,7.60
2023-02-22T09:15:23.117Z,5.10
2023-02-22T09:17:49.565Z,5.93
2023-02-22T09:20:18.243Z,6.50
2023-02-22T09:22:46.313Z,4.93
2023-02-22T09:25:17.036Z,11.43
2023-02-22T09:27:44.986Z,5.50
2023-02-22T09:30:40.712Z,3.47
2023-02-22T09:33:13.413Z,4.03
2023-02-22T09:35:46.217Z,3.73
2023-02-22T09:38:15.767Z,4.50
2023-02-22T09:41:14.194Z,3.00
2023-02-22T09:44:22.511Z,2.83
2023-02-22T09:46:49.649Z,3.17
2023-02-22T09:49:21.514Z,13.53
2023-02-22T09:52:14.225Z,5.47
2023-02-22T09:54:45.243Z,4.60
2023-02-22T09:57:40.589Z,4.73
2023-02-22T10:00:22.684Z,8.20
2023-02-22T10:03:11.472Z,4.57
2023-02-22T10:05:41.798Z,5.80
2023-02-22T10:08:14.185Z,5.83
2023-02-22T10:10:45.877Z,3.30
2023-02-22T10:13:15.262Z,3.63
2023-02-22T10:16:08.617Z,3.97
2023-02-22T10:18:44.126Z,2.50
2023-02-22T10:21:39.513Z,15.83
2023-02-22T10:24:33.726Z,4.27
2023-02-22T10:27:01.228Z,4.60
2023-02-22T10:29:44.762Z,4.43
2023-02-22T10:32:23.791Z,4.20
2023-02-22T10:34:53.549Z,1.97
2023-02-22T10:37:32.202Z,2.83
2023-02-22T10:40:13.103Z,6.30
2023-02-22T10:42:39.676Z,8.53
2023-02-22T10:45:17.827Z,5.90
2023-02-22T10:47:45.316Z,1.47
2023-02-22T10:50:14.654Z,4.17
2023-02-22T10:52:41.143Z,2.17
2023-02-22T10:55:16.133Z,8.47
2023-02-22T10:57:46.914Z,2.60
2023-02-22T11:00:29.457Z,6.73
2023-02-22T11:02:58.200Z,3.00
2023-02-22T11:05:39.776Z,5.90
2023-02-22T11:08:21.512Z,9.83
2023-02-22T11:10:49.862Z,5.73
2023-02-22T11:13:35.568Z,5.63
2023-02-22T11:16:18.636Z,2.57
2023-02-22T11:18:47.299Z,5.17
2023-02-22T11:21:22.691Z,4.30
2023-02-22T11:23:50.347Z,2.43
2023-02-22T11:26:20.617Z,3.73
2023-02-22T11:28:50.197Z,3.90
2023-02-22T11:31:20.881Z,2.03
2023-02-22T11:34:00.059Z,7.70
2023-02-22T11:36:40.747Z,7.87
2023-02-22T11:39:24.446Z,3.83
2023-02-22T11:41:51.494Z,2.90
2023-02-22T11:44:29.756Z,3.63
2023-02-22T11:47:01.317Z,3.37
2023-02-22T11:49:42.611Z,2.80
2023-02-22T11:52:20.547Z,4.50
2023-02-22T11:55:41.897Z,2.10
2023-02-22T11:58:32.210Z,1.70
2023-02-22T12:01:17.488Z,6.23
2023-02-22T12:03:54.198Z,2.17
2023-02-22T12:06:26.777Z,1.93
2023-02-22T12:09:18.584Z,1.90
2023-02-22T12:11:54.915Z,1.70
2023-02-22T12:14:32.026Z,3.20
2023-02-22T12:17:14.450Z,6.27
2023-02-22T12:19:49.240Z,3.37
2023-02-22T12:22:29.460Z,2.27
2023-02-22T12:25:36.693Z,2.50
2023-02-22T12:28:24.907Z,3.47
2023-02-22T12:31:22.613Z,2.27
2023-02-22T12:34:07.761Z,7.57
2023-02-22T12:36:43.453Z,1.27
2023-02-22T12:39:52.713Z,2.90
2023-02-22T12:42:42.694Z,1.63
2023-02-22T12:45:16.889Z,1.30
2023-02-22T12:47:53.744Z,2.20
2023-02-22T12:50:25.594Z,2.47
2023-02-22T12:52:59.635Z,2.90
2023-02-22T12:55:35.353Z,2.53
2023-02-22T12:58:18.185Z,2.57
2023-02-22T13:01:14.887Z,3.13
2023-02-22T13:03:43.793Z,2.27
2023-02-22T13:06:27.806Z,3.37
2023-02-22T13:09:35.188Z,14.97
2023-02-22T13:12:11.084Z,2.70
2023-02-22T13:15:10.767Z,3.10
2023-02-22T13:17:52.087Z,2.17
2023-02-22T13:20:24.781Z,1.87
2023-02-22T13:23:07.204Z,1.40
2023-02-22T13:26:08.020Z,0.90
2023-02-22T13:28:46.567Z,1.00
2023-02-22T13:31:36.506Z,2.23
2023-02-22T13:34:40.064Z,3.97
2023-02-22T13:37:30.231Z,3.80
2023-02-22T13:40:16.742Z,10.47
2023-02-22T13:43:07.228Z,2.70
2023-02-22T13:45:52.521Z,2.93
2023-02-22T13:48:22.013Z,2.87
2023-02-22T13:51:33.233Z,1.27
2023-02-22T13:54:06.099Z,1.70
2023-02-22T13:56:32.639Z,0.80
2023-02-22T13:59:02.448Z,0.93
2023-02-22T14:01:47.581Z,2.93
2023-02-22T14:04:29.368Z,2.50
2023-02-22T14:07:02.393Z,5.60
2023-02-22T14:09:52.472Z,1.40
2023-02-22T14:12:31.143Z,0.80
2023-02-22T14:15:18.706Z,2.13
2023-02-22T14:17:57.322Z,4.77
2023-02-22T14:20:32.092Z,2.30
2023-02-22T14:23:28.148Z,2.20
2023-02-22T14:25:56.095Z,2.23
2023-02-22T14:28:54.382Z,3.80
2023-02-22T14:31:35.863Z,2.80
2023-02-22T14:34:38.620Z,5.00
2023-02-22T14:37:11.534Z,4.27
2023-02-22T14:40:02.069Z,8.60
2023-02-22T14:42:37.742Z,3.97
2023-02-22T14:45:24.798Z,5.60
2023-02-22T14:48:20.399Z,4.57
2023-02-22T14:51:01.999Z,3.17
2023-02-22T14:53:43.955Z,2.50
2023-02-22T14:56:24.544Z,2.97
2023-02-22T14:59:18.478Z,3.90
2023-02-22T15:02:01.518Z,3.93
2023-02-22T15:04:34.862Z,3.90
2023-02-22T15:07:09.533Z,5.27
2023-02-22T15:09:37.452Z,2.73
2023-02-22T15:12:03.935Z,2.60
2023-02-22T15:14:41.733Z,2.37
2023-02-22T15:17:16.185Z,6.30
2023-02-22T15:19:42.789Z,2.17
2023-02-22T15:22:22.733Z,5.03
2023-02-22T15:25:01.319Z,4.40
2023-02-22T15:27:28.524Z,3.40
2023-02-22T15:30:04.498Z,6.47
2023-02-22T15:32:31.148Z,4.00
2023-02-22T15:35:18.502Z,5.50
2023-02-22T15:37:46.932Z,2.73
2023-02-22T15:40:16.799Z,7.60
2023-02-22T15:42:53.071Z,3.27
2023-02-22T15:45:22.080Z,2.57
2023-02-22T15:47:49.454Z,6.23
2023-02-22T15:50:29.493Z,2.97
2023-02-22T15:53:01.605Z,9.77
2023-02-22T15:55:35.866Z,12.77
2023-02-22T15:58:22.261Z,5.13
2023-02-22T16:00:59.644Z,9.57
2023-02-22T16:03:28.674Z,5.80
2023-02-22T16:05:56.959Z,12.50
2023-02-22T16:08:29.301Z,5.80
2023-02-22T16:11:38.350Z,9.00
2023-02-22T16:14:07.442Z,10.13
2023-02-22T16:16:36.935Z,7.57
2023-02-22T16:19:35.670Z,4.43
2023-02-22T16:22:05.228Z,6.43
2023-02-22T16:24:34.070Z,7.63
2023-02-22T16:27:12.586Z,3.40
2023-02-22T16:29:39.098Z,4.60
2023-02-22T16:32:05.684Z,2.50
2023-02-22T16:34:32.352Z,4.70
2023-02-22T16:36:59.258Z,3.90
2023-02-22T16:39:28.402Z,3.20
2023-02-22T16:41:57.350Z,3.23
2023-02-22T16:44:25.369Z,3.57
2023-02-22T16:46:57.593Z,3.70
2023-02-22T16:49:24.497Z,5.27
2023-02-22T16:51:55.163Z,10.90
2023-02-22T16:54:34.332Z,9.57
2023-02-22T16:57:02.324Z,6.43
2023-02-22T16:59:32.658Z,5.77
2023-02-22T17:01:59.133Z,5.97
2023-02-22T17:04:26.458Z,5.40
2023-02-22T17:06:53.035Z,4.80
2023-02-22T17:09:22.386Z,10.20
2023-02-22T17:11:51.400Z,3.63
2023-02-22T17:14:23.135Z,7.37
2023-02-22T17:16:52.824Z,7.70
2023-02-22T17:19:22.222Z,8.97
2023-02-22T17:21:49.681Z,8.47
2023-02-22T17:24:29.027Z,5.47
2023-02-22T17:26:57.374Z,13.90
2023-02-22T17:29:24.227Z,12.90
2023-02-22T17:31:52.452Z,12.83
2023-02-22T17:34:18.976Z,6.00
2023-02-22T17:36:45.654Z,11.60
2023-02-22T17:39:13.414Z,8.53
2023-02-22T17:41:40.879Z,8.70
2023-02-22T17:44:07.754Z,6.33
2023-02-22T17:46:36.135Z,7.03
2023-02-22T17:49:03.255Z,20.77
2023-02-22T17:51:29.834Z,11.00
2023-02-22T17:53:56.292Z,5.67
2023-02-22T17:56:22.711Z,7.93
2023-02-22T17:58:53.199Z,13.70
2023-02-22T18:01:29.479Z,12.47
2023-02-22T18:03:58.828Z,14.50
2023-02-22T18:06:28.479Z,10.43
2023-02-22T18:08:56.919Z,6.93
2023-02-22T18:11:26.434Z,8.90
2023-02-22T18:13:57.220Z,12.23
2023-02-22T18:16:25.863Z,11.47
2023-02-22T18:18:53.311Z,7.40
2023-02-22T18:21:19.989Z,12.20
2023-02-22T18:23:46.435Z,13.87
2023-02-22T18:26:18.414Z,11.50
2023-02-22T18:28:45.042Z,16.50
2023-02-22T18:31:16.808Z,18.33
2023-02-22T18:33:45.466Z,13.83
2023-02-22T18:36:13.211Z,17.37
2023-02-22T18:38:42.885Z,18.53
2023-02-22T18:41:15.561Z,8.73
2023-02-22T18:43:42.810Z,9.67
2023-02-22T18:46:13.567Z,14.03
2023-02-22T18:48:40.282Z,8.90
2023-02-22T18:51:09.877Z,22.77
2023-02-22T18:53:38.524Z,13.47
2023-02-22T18:56:13.672Z,13.33
2023-02-22T18:58:43.091Z,14.13
2023-02-22T19:01:15.630Z,17.03
2023-02-22T19:03:42.811Z,13.47
2023-02-22T19:06:10.007Z,11.30
2023-02-22T19:08:39.522Z,18.67
2023-02-22T19:11:09.036Z,13.37
2023-02-22T19:13:35.589Z,18.17
2023-02-22T19:16:03.822Z,17.60
2023-02-22T19:18:30.789Z,19.00
2023-02-22T19:21:02.969Z,13.53
2023-02-22T19:23:34.370Z,14.33
2023-02-22T19:26:02.627Z,16.37
2023-02-22T19:28:33.970Z,16.23
2023-02-22T19:31:18.820Z,17.80
2023-02-22T19:33:47.379Z,17.40
2023-02-22T19:36:15.869Z,16.83
2023-02-22T19:38:43.506Z,21.87
2023-02-22T19:41:19.586Z,17.20
2023-02-22T19:43:51.631Z,22.47
2023-02-22T19:46:21.063Z,25.70
2023-02-22T19:48:48.442Z,17.73
2023-02-22T19:51:16.537Z,17.60
2023-02-22T19:53:43.992Z,19.00
2023-02-22T19:56:16.762Z,16.60
2023-02-22T19:58:46.002Z,20.70
2023-02-22T20:01:27.029Z,19.80
2023-02-22T20:04:00.016Z,21.70
2023-02-22T20:06:28.986Z,17.43
2023-02-22T20:08:57.132Z,19.37
2023-02-22T20:11:24.664Z,17.03
2023-02-22T20:13:52.189Z,14.90
2023-02-22T20:16:18.710Z,20.57
2023-02-22T20:18:46.427Z,22.40
2023-02-22T20:21:19.989Z,16.23
2023-02-22T20:23:46.726Z,18.63
2023-02-22T20:26:20.019Z,19.23
2023-02-22T20:28:46.777Z,16.60
2023-02-22T20:31:14.352Z,18.50
2023-02-22T20:33:42.176Z,21.97
2023-02-22T20:36:17.119Z,18.87
2023-02-22T20:38:44.411Z,18.80
2023-02-22T20:41:19.749Z,17.80
2023-02-22T20:43:50.149Z,23.00
2023-02-22T20:46:16.937Z,21.60
2023-02-22T20:48:43.360Z,20.80
2023-02-22T20:51:12.500Z,22.97
2023-02-22T20:53:41.802Z,34.43
2023-02-22T20:56:15.995Z,28.47
2023-02-22T20:58:43.093Z,26.80
2023-02-22T21:01:12.197Z,20.93
2023-02-22T21:03:38.667Z,25.07
2023-02-22T21:06:05.786Z,19.20
2023-02-22T21:08:32.638Z,19.50
2023-02-22T21:10:59.758Z,22.53
2023-02-22T21:13:26.304Z,18.30
2023-02-22T21:15:52.973Z,22.70
2023-02-22T21:18:20.917Z,21.67
2023-02-22T21:20:48.482Z,20.20
2023-02-22T21:23:15.703Z,20.23
2023-02-22T21:25:52.437Z,19.50
2023-02-22T21:28:19.008Z,20.27
2023-02-22T21:30:47.143Z,19.17
2023-02-22T21:33:15.705Z,19.87
2023-02-22T21:35:47.097Z,16.53
2023-02-22T21:38:14.491Z,21.70
2023-02-22T21:40:42.519Z,23.60
2023-02-22T21:43:10.584Z,17.67
2023-02-22T21:45:38.198Z,17.67
2023-02-22T21:48:05.742Z,20.30
2023-02-22T21:50:32.599Z,20.70
2023-02-22T21:52:59.189Z,16.73
2023-02-22T21:55:25.613Z,17.30
2023-02-22T21:57:52.437Z,23.87
2023-02-22T22:00:28.752Z,18.33
2023-02-22T22:03:08.041Z,16.87
2023-02-22T22:05:38.872Z,18.10
2023-02-22T22:08:07.509Z,21.07
2023-02-22T22:10:36.112Z,23.03
2023-02-22T22:13:02.604Z,19.77
2023-02-22T22:15:31.532Z,18.97
2023-02-22T22:18:05.396Z,19.83
2023-02-22T22:20:37.789Z,17.30
2023-02-22T22:23:07.902Z,22.63
2023-02-22T22:25:38.071Z,17.53
2023-02-22T22:28:07.462Z,17.83
2023-02-22T22:30:36.894Z,19.47
2023-02-22T22:33:11.215Z,19.57
2023-02-22T22:35:41.853Z,24.43
2023-02-22T22:38:09.434Z,19.40
2023-02-22T22:40:38.754Z,16.97
2023-02-22T22:43:06.090Z,20.97
2023-02-22T22:45:32.838Z,25.57
2023-02-22T22:47:59.307Z,18.87
2023-02-22T22:50:26.343Z,18.03
2023-02-22T22:52:55.571Z,20.27
2023-02-22T22:55:24.223Z,19.73
2023-02-22T22:57:51.803Z,18.60
2023-02-22T23:00:33.309Z,21.67
2023-02-22T23:03:00.020Z,18.97
2023-02-22T23:05:28.598Z,17.10
2023-02-22T23:07:56.697Z,26.60
2023-02-22T23:10:29.289Z,20.70
2023-02-22T23:12:58.683Z,22.60
2023-02-22T23:15:25.588Z,17.80
2023-02-22T23:17:55.988Z,18.83
2023-02-22T23:20:26.398Z,17.23
2023-02-22T23:22:54.016Z,20.80
2023-02-22T23:25:21.644Z,21.00
2023-02-22T23:27:49.084Z,20.27
2023-02-22T23:30:18.624Z,16.93
2023-02-22T23:32:46.616Z,17.70
2023-02-22T23:35:15.447Z,17.70
2023-02-22T23:37:42.541Z,17.60
2023-02-22T23:40:17.017Z,15.00
2023-02-22T23:42:49.113Z,20.73
2023-02-22T23:45:22.503Z,19.53
2023-02-22T23:47:57.293Z,20.17
2023-02-22T23:50:25.651Z,19.30
2023-02-22T23:52:57.506Z,21.37
2023-02-22T23:55:31.388Z,18.73
2023-02-22T23:57:59.427Z,17.33
